sensor_id;sensor_type;location;lat;lon;timestamp;P1;durP1;ratioP1;P2;durP2;ratioP2
29246;SDS011;16272;48.188;9.964;2024-02-21T00:00:36;7.70;;;1.93;;
29246;SDS011;16272;48.188;9.964;2024-02-21T00:03:03;8.57;;;1.92;;
29246;SDS011;16272;48.188;9.964;2024-02-21T00:05:29;7.80;;;1.98;;
29246;SDS011;16272;48.188;9.964;2024-02-21T00:07:54;7.47;;;2.00;;
29246;SDS011;16272;48.188;9.964;2024-02-21T00:10:20;6.07;;;1.77;;
29246;SDS011;16272;48.188;9.964;2024-02-21T00:12:45;9.07;;;2.93;;
29246;SDS011;16272;48.188;9.964;2024-02-21T00:15:11;7.07;;;2.25;;
29246;SDS011;16272;48.188;9.964;2024-02-21T00:17:36;6.37;;;1.77;;
29246;SDS011;16272;48.188;9.964;2024-02-21T00:20:02;6.93;;;2.13;;
29246;SDS011;16272;48.188;9.964;2024-02-21T00:22:27;9.93;;;3.00;;
29246;SDS011;16272;48.188;9.964;2024-02-21T00:24:56;9.57;;;3.20;;
29246;SDS011;16272;48.188;9.964;2024-02-21T00:32:13;5.70;;;1.60;;
29246;SDS011;16272;48.188;9.964;2024-02-21T00:34:38;11.17;;;2.90;;
29246;SDS011;16272;48.188;9.964;2024-02-21T00:39:29;9.83;;;2.20;;
29246;SDS011;16272;48.188;9.964;2024-02-21T00:41:54;8.90;;;3.33;;
29246;SDS011;16272;48.188;9.964;2024-02-21T00:44:19;10.57;;;3.63;;
29246;SDS011;16272;48.188;9.964;2024-02-21T00:46:44;9.13;;;3.00;;
29246;SDS011;16272;48.188;9.964;2024-02-21T00:49:11;10.67;;;3.17;;
29246;SDS011;16272;48.188;9.964;2024-02-21T00:51:36;9.13;;;2.70;;
29246;SDS011;16272;48.188;9.964;2024-02-21T00:54:02;7.57;;;2.17;;
29246;SDS011;16272;48.188;9.964;2024-02-21T00:56:27;9.40;;;3.10;;
29246;SDS011;16272;48.188;9.964;2024-02-21T00:58:52;11.50;;;3.17;;
29246;SDS011;16272;48.188;9.964;2024-02-21T01:01:21;8.93;;;2.67;;
29246;SDS011;16272;48.188;9.964;2024-02-21T01:03:47;7.20;;;2.10;;
29246;SDS011;16272;48.188;9.964;2024-02-21T01:06:13;8.45;;;2.92;;
29246;SDS011;16272;48.188;9.964;2024-02-21T01:08:38;9.33;;;3.30;;
29246;SDS011;16272;48.188;9.964;2024-02-21T01:11:03;9.17;;;2.50;;
29246;SDS011;16272;48.188;9.964;2024-02-21T01:13:29;8.27;;;2.57;;
29246;SDS011;16272;48.188;9.964;2024-02-21T01:15:54;8.50;;;2.57;;
29246;SDS011;16272;48.188;9.964;2024-02-21T01:18:19;11.53;;;3.13;;
29246;SDS011;16272;48.188;9.964;2024-02-21T01:20:44;9.93;;;2.70;;
29246;SDS011;16272;48.188;9.964;2024-02-21T01:23:10;8.80;;;2.30;;
29246;SDS011;16272;48.188;9.964;2024-02-21T01:25:35;8.87;;;2.07;;
29246;SDS011;16272;48.188;9.964;2024-02-21T01:28:00;11.60;;;3.17;;
29246;SDS011;16272;48.188;9.964;2024-02-21T01:30:25;8.57;;;2.30;;
29246;SDS011;16272;48.188;9.964;2024-02-21T01:32:51;7.80;;;2.10;;
29246;SDS011;16272;48.188;9.964;2024-02-21T01:35:16;8.63;;;2.10;;
29246;SDS011;16272;48.188;9.964;2024-02-21T01:37:41;7.53;;;2.03;;
29246;SDS011;16272;48.188;9.964;2024-02-21T01:40:07;10.10;;;3.20;;
29246;SDS011;16272;48.188;9.964;2024-02-21T01:42:32;10.45;;;2.40;;
29246;SDS011;16272;48.188;9.964;2024-02-21T01:44:58;6.90;;;2.00;;
29246;SDS011;16272;48.188;9.964;2024-02-21T01:47:23;9.50;;;3.20;;
29246;SDS011;16272;48.188;9.964;2024-02-21T01:49:49;6.73;;;2.10;;
29246;SDS011;16272;48.188;9.964;2024-02-21T01:52:14;7.53;;;2.10;;
29246;SDS011;16272;48.188;9.964;2024-02-21T01:54:41;9.80;;;2.90;;
29246;SDS011;16272;48.188;9.964;2024-02-21T01:57:07;8.20;;;2.17;;
29246;SDS011;16272;48.188;9.964;2024-02-21T01:59:32;6.90;;;2.33;;
29246;SDS011;16272;48.188;9.964;2024-02-21T02:01:58;8.43;;;2.10;;
29246;SDS011;16272;48.188;9.964;2024-02-21T02:04:23;7.60;;;2.13;;
29246;SDS011;16272;48.188;9.964;2024-02-21T02:06:50;8.93;;;2.25;;
29246;SDS011;16272;48.188;9.964;2024-02-21T02:09:16;6.03;;;1.60;;
29246;SDS011;16272;48.188;9.964;2024-02-21T02:11:42;8.77;;;1.83;;
29246;SDS011;16272;48.188;9.964;2024-02-21T02:14:08;8.43;;;1.95;;
29246;SDS011;16272;48.188;9.964;2024-02-21T02:16:33;7.03;;;2.10;;
29246;SDS011;16272;48.188;9.964;2024-02-21T02:18:58;7.23;;;1.87;;
29246;SDS011;16272;48.188;9.964;2024-02-21T02:21:30;7.73;;;2.00;;
29246;SDS011;16272;48.188;9.964;2024-02-21T02:23:59;7.05;;;2.10;;
29246;SDS011;16272;48.188;9.964;2024-02-21T02:26:25;7.67;;;1.77;;
29246;SDS011;16272;48.188;9.964;2024-02-21T02:28:50;7.67;;;2.03;;
29246;SDS011;16272;48.188;9.964;2024-02-21T02:31:15;7.57;;;2.10;;
29246;SDS011;16272;48.188;9.964;2024-02-21T02:33:42;7.93;;;1.90;;
29246;SDS011;16272;48.188;9.964;2024-02-21T02:36:09;11.47;;;3.40;;
29246;SDS011;16272;48.188;9.964;2024-02-21T02:38:34;10.27;;;2.95;;
29246;SDS011;16272;48.188;9.964;2024-02-21T02:40:59;7.10;;;2.30;;
29246;SDS011;16272;48.188;9.964;2024-02-21T02:43:25;10.37;;;2.30;;
29246;SDS011;16272;48.188;9.964;2024-02-21T02:45:50;7.60;;;2.40;;
29246;SDS011;16272;48.188;9.964;2024-02-21T02:48:15;8.87;;;2.40;;
29246;SDS011;16272;48.188;9.964;2024-02-21T02:50:40;7.90;;;2.30;;
29246;SDS011;16272;48.188;9.964;2024-02-21T02:53:06;8.50;;;2.50;;
29246;SDS011;16272;48.188;9.964;2024-02-21T02:55:31;9.53;;;2.70;;
29246;SDS011;16272;48.188;9.964;2024-02-21T02:57:56;9.10;;;2.20;;
29246;SDS011;16272;48.188;9.964;2024-02-21T03:00:22;10.50;;;2.00;;
29246;SDS011;16272;48.188;9.964;2024-02-21T03:02:48;7.13;;;2.05;;
29246;SDS011;16272;48.188;9.964;2024-02-21T03:05:19;11.13;;;3.60;;
29246;SDS011;16272;48.188;9.964;2024-02-21T03:07:46;10.52;;;2.90;;
29246;SDS011;16272;48.188;9.964;2024-02-21T03:10:12;12.07;;;3.00;;
29246;SDS011;16272;48.188;9.964;2024-02-21T03:12:38;6.97;;;2.30;;
29246;SDS011;16272;48.188;9.964;2024-02-21T03:15:04;11.60;;;3.50;;
29246;SDS011;16272;48.188;9.964;2024-02-21T03:17:30;9.60;;;2.97;;
29246;SDS011;16272;48.188;9.964;2024-02-21T03:19:57;8.68;;;2.83;;
29246;SDS011;16272;48.188;9.964;2024-02-21T03:22:22;8.07;;;2.33;;
29246;SDS011;16272;48.188;9.964;2024-02-21T03:24:47;8.80;;;3.23;;
29246;SDS011;16272;48.188;9.964;2024-02-21T03:27:13;7.90;;;2.87;;
29246;SDS011;16272;48.188;9.964;2024-02-21T03:29:38;9.47;;;2.63;;
29246;SDS011;16272;48.188;9.964;2024-02-21T03:32:04;8.47;;;2.20;;
29246;SDS011;16272;48.188;9.964;2024-02-21T03:34:29;6.97;;;1.90;;
29246;SDS011;16272;48.188;9.964;2024-02-21T03:36:54;8.27;;;2.30;;
29246;SDS011;16272;48.188;9.964;2024-02-21T03:39:20;9.97;;;3.33;;
29246;SDS011;16272;48.188;9.964;2024-02-21T03:41:46;8.63;;;2.90;;
29246;SDS011;16272;48.188;9.964;2024-02-21T03:44:11;8.93;;;2.80;;
29246;SDS011;16272;48.188;9.964;2024-02-21T03:46:37;7.83;;;2.30;;
29246;SDS011;16272;48.188;9.964;2024-02-21T03:49:02;9.43;;;3.53;;
29246;SDS011;16272;48.188;9.964;2024-02-21T03:51:27;9.27;;;2.57;;
29246;SDS011;16272;48.188;9.964;2024-02-21T03:53:52;8.17;;;2.60;;
29246;SDS011;16272;48.188;9.964;2024-02-21T03:56:18;8.37;;;2.37;;
29246;SDS011;16272;48.188;9.964;2024-02-21T03:58:43;7.17;;;2.30;;
29246;SDS011;16272;48.188;9.964;2024-02-21T04:01:08;9.87;;;3.70;;
29246;SDS011;16272;48.188;9.964;2024-02-21T04:03:34;9.53;;;3.10;;
29246;SDS011;16272;48.188;9.964;2024-02-21T04:05:59;9.50;;;2.53;;
29246;SDS011;16272;48.188;9.964;2024-02-21T04:08:25;7.53;;;2.42;;
29246;SDS011;16272;48.188;9.964;2024-02-21T04:10:50;7.97;;;2.03;;
29246;SDS011;16272;48.188;9.964;2024-02-21T04:13:16;10.73;;;3.50;;
29246;SDS011;16272;48.188;9.964;2024-02-21T04:15:41;9.23;;;2.67;;
29246;SDS011;16272;48.188;9.964;2024-02-21T04:18:06;7.57;;;2.30;;
29246;SDS011;16272;48.188;9.964;2024-02-21T04:20:32;7.80;;;2.53;;
29246;SDS011;16272;48.188;9.964;2024-02-21T04:22:59;6.78;;;2.00;;
29246;SDS011;16272;48.188;9.964;2024-02-21T04:25:25;6.53;;;2.10;;
29246;SDS011;16272;48.188;9.964;2024-02-21T04:27:51;7.40;;;1.90;;
29246;SDS011;16272;48.188;9.964;2024-02-21T04:30:16;6.00;;;1.90;;
29246;SDS011;16272;48.188;9.964;2024-02-21T04:32:42;6.53;;;1.63;;
29246;SDS011;16272;48.188;9.964;2024-02-21T04:35:07;6.87;;;1.90;;
29246;SDS011;16272;48.188;9.964;2024-02-21T04:37:33;7.47;;;1.80;;
29246;SDS011;16272;48.188;9.964;2024-02-21T04:39:59;7.77;;;2.00;;
29246;SDS011;16272;48.188;9.964;2024-02-21T04:42:24;9.68;;;3.10;;
29246;SDS011;16272;48.188;9.964;2024-02-21T04:44:49;6.47;;;2.00;;
29246;SDS011;16272;48.188;9.964;2024-02-21T04:47:15;7.50;;;2.30;;
29246;SDS011;16272;48.188;9.964;2024-02-21T04:49:40;8.87;;;3.10;;
29246;SDS011;16272;48.188;9.964;2024-02-21T04:52:05;6.97;;;2.30;;
29246;SDS011;16272;48.188;9.964;2024-02-21T04:54:31;8.27;;;2.03;;
29246;SDS011;16272;48.188;9.964;2024-02-21T04:56:56;9.53;;;3.20;;
29246;SDS011;16272;48.188;9.964;2024-02-21T04:59:21;7.67;;;2.20;;
29246;SDS011;16272;48.188;9.964;2024-02-21T05:01:46;8.57;;;2.60;;
29246;SDS011;16272;48.188;9.964;2024-02-21T05:04:12;6.97;;;2.50;;
29246;SDS011;16272;48.188;9.964;2024-02-21T05:06:38;7.43;;;2.30;;
29246;SDS011;16272;48.188;9.964;2024-02-21T05:09:04;9.43;;;2.80;;
29246;SDS011;16272;48.188;9.964;2024-02-21T05:11:30;7.63;;;2.15;;
29246;SDS011;16272;48.188;9.964;2024-02-21T05:13:56;8.20;;;2.20;;
29246;SDS011;16272;48.188;9.964;2024-02-21T05:16:21;7.50;;;2.60;;
29246;SDS011;16272;48.188;9.964;2024-02-21T05:18:46;7.20;;;2.37;;
29246;SDS011;16272;48.188;9.964;2024-02-21T05:21:11;7.43;;;2.10;;
29246;SDS011;16272;48.188;9.964;2024-02-21T05:23:37;9.57;;;2.37;;
29246;SDS011;16272;48.188;9.964;2024-02-21T05:26:04;6.93;;;1.83;;
29246;SDS011;16272;48.188;9.964;2024-02-21T05:28:29;6.60;;;1.80;;
29246;SDS011;16272;48.188;9.964;2024-02-21T05:30:55;7.57;;;1.80;;
29246;SDS011;16272;48.188;9.964;2024-02-21T05:33:20;7.00;;;1.67;;
29246;SDS011;16272;48.188;9.964;2024-02-21T05:35:48;6.37;;;1.53;;
29246;SDS011;16272;48.188;9.964;2024-02-21T05:38:14;7.20;;;2.10;;
29246;SDS011;16272;48.188;9.964;2024-02-21T05:40:39;6.32;;;1.80;;
29246;SDS011;16272;48.188;9.964;2024-02-21T05:43:05;6.87;;;1.50;;
29246;SDS011;16272;48.188;9.964;2024-02-21T05:45:30;7.60;;;1.43;;
29246;SDS011;16272;48.188;9.964;2024-02-21T05:47:55;7.00;;;1.90;;
29246;SDS011;16272;48.188;9.964;2024-02-21T05:50:22;7.43;;;1.90;;
29246;SDS011;16272;48.188;9.964;2024-02-21T05:52:48;5.53;;;1.50;;
29246;SDS011;16272;48.188;9.964;2024-02-21T05:55:16;5.57;;;1.30;;
29246;SDS011;16272;48.188;9.964;2024-02-21T05:57:41;6.70;;;1.93;;
29246;SDS011;16272;48.188;9.964;2024-02-21T06:00:07;6.67;;;1.67;;
29246;SDS011;16272;48.188;9.964;2024-02-21T06:02:32;6.60;;;1.40;;
29246;SDS011;16272;48.188;9.964;2024-02-21T06:04:58;6.67;;;1.90;;
29246;SDS011;16272;48.188;9.964;2024-02-21T06:07:23;6.97;;;1.83;;
29246;SDS011;16272;48.188;9.964;2024-02-21T06:09:49;6.90;;;1.70;;
29246;SDS011;16272;48.188;9.964;2024-02-21T06:12:14;6.50;;;1.70;;
29246;SDS011;16272;48.188;9.964;2024-02-21T06:14:39;6.87;;;1.47;;
29246;SDS011;16272;48.188;9.964;2024-02-21T06:17:04;6.53;;;1.27;;
29246;SDS011;16272;48.188;9.964;2024-02-21T06:19:30;6.60;;;2.10;;
29246;SDS011;16272;48.188;9.964;2024-02-21T06:21:55;6.80;;;2.00;;
29246;SDS011;16272;48.188;9.964;2024-02-21T06:24:20;6.40;;;1.80;;
29246;SDS011;16272;48.188;9.964;2024-02-21T06:26:46;6.25;;;1.50;;
29246;SDS011;16272;48.188;9.964;2024-02-21T06:29:11;6.37;;;1.40;;
29246;SDS011;16272;48.188;9.964;2024-02-21T06:31:38;5.30;;;1.40;;
29246;SDS011;16272;48.188;9.964;2024-02-21T06:34:05;6.72;;;2.00;;
29246;SDS011;16272;48.188;9.964;2024-02-21T06:36:30;7.67;;;2.10;;
29246;SDS011;16272;48.188;9.964;2024-02-21T06:38:55;6.87;;;1.73;;
29246;SDS011;16272;48.188;9.964;2024-02-21T06:41:21;7.67;;;2.03;;
29246;SDS011;16272;48.188;9.964;2024-02-21T06:43:46;7.03;;;2.20;;
29246;SDS011;16272;48.188;9.964;2024-02-21T06:46:12;5.60;;;1.67;;
29246;SDS011;16272;48.188;9.964;2024-02-21T06:48:50;6.90;;;1.27;;
29246;SDS011;16272;48.188;9.964;2024-02-21T06:51:16;6.55;;;1.75;;
29246;SDS011;16272;48.188;9.964;2024-02-21T06:53:41;6.00;;;1.70;;
29246;SDS011;16272;48.188;9.964;2024-02-21T06:56:06;5.83;;;1.67;;
29246;SDS011;16272;48.188;9.964;2024-02-21T06:58:32;8.50;;;1.40;;
29246;SDS011;16272;48.188;9.964;2024-02-21T07:00:57;6.47;;;1.30;;
29246;SDS011;16272;48.188;9.964;2024-02-21T07:03:22;7.33;;;2.00;;
29246;SDS011;16272;48.188;9.964;2024-02-21T07:05:49;7.45;;;2.00;;
29246;SDS011;16272;48.188;9.964;2024-02-21T07:08:14;6.60;;;2.00;;
29246;SDS011;16272;48.188;9.964;2024-02-21T07:10:40;7.00;;;2.53;;
29246;SDS011;16272;48.188;9.964;2024-02-21T07:13:05;8.40;;;2.67;;
29246;SDS011;16272;48.188;9.964;2024-02-21T07:15:31;9.57;;;3.60;;
29246;SDS011;16272;48.188;9.964;2024-02-21T07:17:57;9.63;;;3.25;;
29246;SDS011;16272;48.188;9.964;2024-02-21T07:20:23;6.55;;;2.30;;
29246;SDS011;16272;48.188;9.964;2024-02-21T07:22:48;9.30;;;3.20;;
29246;SDS011;16272;48.188;9.964;2024-02-21T07:25:14;9.23;;;2.97;;
29246;SDS011;16272;48.188;9.964;2024-02-21T07:27:39;10.87;;;3.10;;
29246;SDS011;16272;48.188;9.964;2024-02-21T07:30:05;9.18;;;3.03;;
29246;SDS011;16272;48.188;9.964;2024-02-21T07:32:31;9.60;;;3.73;;
29246;SDS011;16272;48.188;9.964;2024-02-21T07:34:56;8.90;;;3.10;;
29246;SDS011;16272;48.188;9.964;2024-02-21T07:37:21;8.03;;;2.80;;
29246;SDS011;16272;48.188;9.964;2024-02-21T07:39:46;8.67;;;2.60;;
29246;SDS011;16272;48.188;9.964;2024-02-21T07:42:12;8.97;;;3.40;;
29246;SDS011;16272;48.188;9.964;2024-02-21T07:44:37;9.10;;;2.80;;
29246;SDS011;16272;48.188;9.964;2024-02-21T07:47:02;7.60;;;2.60;;
29246;SDS011;16272;48.188;9.964;2024-02-21T07:49:28;9.33;;;2.83;;
29246;SDS011;16272;48.188;9.964;2024-02-21T07:51:53;8.63;;;2.40;;
29246;SDS011;16272;48.188;9.964;2024-02-21T07:54:19;8.02;;;2.90;;
29246;SDS011;16272;48.188;9.964;2024-02-21T07:56:44;9.03;;;3.00;;
29246;SDS011;16272;48.188;9.964;2024-02-21T07:59:09;7.90;;;2.73;;
29246;SDS011;16272;48.188;9.964;2024-02-21T08:01:35;7.87;;;2.90;;
29246;SDS011;16272;48.188;9.964;2024-02-21T08:04:00;8.60;;;2.20;;
29246;SDS011;16272;48.188;9.964;2024-02-21T08:06:25;7.73;;;2.50;;
29246;SDS011;16272;48.188;9.964;2024-02-21T08:08:50;6.97;;;2.53;;
29246;SDS011;16272;48.188;9.964;2024-02-21T08:11:16;7.03;;;1.83;;
29246;SDS011;16272;48.188;9.964;2024-02-21T08:13:41;8.20;;;2.50;;
29246;SDS011;16272;48.188;9.964;2024-02-21T08:16:06;7.93;;;2.20;;
29246;SDS011;16272;48.188;9.964;2024-02-21T08:18:32;7.03;;;2.20;;
29246;SDS011;16272;48.188;9.964;2024-02-21T08:21:01;7.67;;;2.43;;
29246;SDS011;16272;48.188;9.964;2024-02-21T08:23:26;6.87;;;2.47;;
29246;SDS011;16272;48.188;9.964;2024-02-21T08:25:51;8.45;;;2.72;;
29246;SDS011;16272;48.188;9.964;2024-02-21T08:28:17;8.03;;;2.70;;
29246;SDS011;16272;48.188;9.964;2024-02-21T08:33:12;6.43;;;2.33;;
29246;SDS011;16272;48.188;9.964;2024-02-21T08:35:37;7.63;;;2.23;;
29246;SDS011;16272;48.188;9.964;2024-02-21T08:38:03;6.20;;;2.10;;
29246;SDS011;16272;48.188;9.964;2024-02-21T08:40:28;8.38;;;2.08;;
29246;SDS011;16272;48.188;9.964;2024-02-21T08:42:53;6.17;;;1.50;;
29246;SDS011;16272;48.188;9.964;2024-02-21T08:45:19;6.20;;;1.80;;
29246;SDS011;16272;48.188;9.964;2024-02-21T08:47:44;5.80;;;1.60;;
29246;SDS011;16272;48.188;9.964;2024-02-21T08:50:09;6.03;;;1.27;;
29246;SDS011;16272;48.188;9.964;2024-02-21T08:52:36;5.18;;;1.30;;
29246;SDS011;16272;48.188;9.964;2024-02-21T08:55:01;4.93;;;1.10;;
29246;SDS011;16272;48.188;9.964;2024-02-21T08:57:27;5.10;;;1.30;;
29246;SDS011;16272;48.188;9.964;2024-02-21T08:59:52;4.50;;;1.00;;
29246;SDS011;16272;48.188;9.964;2024-02-21T09:02:17;5.70;;;1.30;;
29246;SDS011;16272;48.188;9.964;2024-02-21T09:04:42;5.73;;;1.20;;
29246;SDS011;16272;48.188;9.964;2024-02-21T09:07:09;5.18;;;1.20;;
29246;SDS011;16272;48.188;9.964;2024-02-21T09:09:34;5.27;;;1.30;;
29246;SDS011;16272;48.188;9.964;2024-02-21T09:12:00;5.20;;;1.10;;
29246;SDS011;16272;48.188;9.964;2024-02-21T09:14:31;4.28;;;0.82;;
29246;SDS011;16272;48.188;9.964;2024-02-21T09:16:57;5.22;;;1.10;;
29246;SDS011;16272;48.188;9.964;2024-02-21T09:19:22;5.50;;;1.33;;
29246;SDS011;16272;48.188;9.964;2024-02-21T09:21:47;4.60;;;1.30;;
29246;SDS011;16272;48.188;9.964;2024-02-21T09:24:12;6.03;;;1.50;;
29246;SDS011;16272;48.188;9.964;2024-02-21T09:26:38;4.03;;;1.00;;
29246;SDS011;16272;48.188;9.964;2024-02-21T09:29:03;5.37;;;1.40;;
29246;SDS011;16272;48.188;9.964;2024-02-21T09:31:28;5.72;;;1.20;;
29246;SDS011;16272;48.188;9.964;2024-02-21T09:33:54;5.90;;;1.50;;
29246;SDS011;16272;48.188;9.964;2024-02-21T09:36:19;5.73;;;1.40;;
29246;SDS011;16272;48.188;9.964;2024-02-21T09:38:46;5.40;;;1.40;;
29246;SDS011;16272;48.188;9.964;2024-02-21T09:41:15;7.20;;;1.70;;
29246;SDS011;16272;48.188;9.964;2024-02-21T09:43:44;6.95;;;1.50;;
29246;SDS011;16272;48.188;9.964;2024-02-21T09:46:15;7.60;;;1.70;;
29246;SDS011;16272;48.188;9.964;2024-02-21T09:51:45;5.90;;;1.20;;
29246;SDS011;16272;48.188;9.964;2024-02-21T09:54:14;6.10;;;1.30;;
29246;SDS011;16272;48.188;9.964;2024-02-21T09:56:40;5.33;;;1.60;;
29246;SDS011;16272;48.188;9.964;2024-02-21T09:59:05;6.00;;;1.37;;
29246;SDS011;16272;48.188;9.964;2024-02-21T10:01:31;5.03;;;1.10;;
29246;SDS011;16272;48.188;9.964;2024-02-21T10:03:57;5.55;;;1.15;;
29246;SDS011;16272;48.188;9.964;2024-02-21T10:06:22;5.73;;;1.43;;
29246;SDS011;16272;48.188;9.964;2024-02-21T10:08:52;6.30;;;1.52;;
29246;SDS011;16272;48.188;9.964;2024-02-21T10:11:22;6.45;;;1.48;;
29246;SDS011;16272;48.188;9.964;2024-02-21T10:13:48;5.70;;;1.40;;
29246;SDS011;16272;48.188;9.964;2024-02-21T10:16:14;5.05;;;1.60;;
29246;SDS011;16272;48.188;9.964;2024-02-21T10:18:40;6.25;;;1.63;;
29246;SDS011;16272;48.188;9.964;2024-02-21T10:21:06;5.47;;;1.63;;
29246;SDS011;16272;48.188;9.964;2024-02-21T10:23:45;6.28;;;1.70;;
29246;SDS011;16272;48.188;9.964;2024-02-21T10:26:13;4.45;;;1.30;;
29246;SDS011;16272;48.188;9.964;2024-02-21T10:28:39;6.28;;;1.50;;
29246;SDS011;16272;48.188;9.964;2024-02-21T10:31:09;6.32;;;1.35;;
29246;SDS011;16272;48.188;9.964;2024-02-21T10:33:35;6.28;;;1.48;;
29246;SDS011;16272;48.188;9.964;2024-02-21T10:36:06;6.78;;;1.45;;
29246;SDS011;16272;48.188;9.964;2024-02-21T10:38:35;6.70;;;1.40;;
29246;SDS011;16272;48.188;9.964;2024-02-21T10:41:06;5.68;;;1.50;;
29246;SDS011;16272;48.188;9.964;2024-02-21T10:43:33;5.82;;;1.40;;
29246;SDS011;16272;48.188;9.964;2024-02-21T10:46:05;6.18;;;1.40;;
29246;SDS011;16272;48.188;9.964;2024-02-21T10:48:33;6.68;;;1.70;;
29246;SDS011;16272;48.188;9.964;2024-02-21T10:56:32;5.77;;;1.80;;
29246;SDS011;16272;48.188;9.964;2024-02-21T10:59:02;6.07;;;1.48;;
29246;SDS011;16272;48.188;9.964;2024-02-21T11:01:29;5.45;;;1.25;;
29246;SDS011;16272;48.188;9.964;2024-02-21T11:03:57;5.57;;;1.30;;
29246;SDS011;16272;48.188;9.964;2024-02-21T11:06:24;5.32;;;1.40;;
29246;SDS011;16272;48.188;9.964;2024-02-21T11:09:05;5.57;;;1.20;;
29246;SDS011;16272;48.188;9.964;2024-02-21T11:11:39;5.25;;;1.40;;
29246;SDS011;16272;48.188;9.964;2024-02-21T11:16:34;5.60;;;1.10;;
29246;SDS011;16272;48.188;9.964;2024-02-21T11:19:35;5.63;;;1.63;;
29246;SDS011;16272;48.188;9.964;2024-02-21T11:21:55;5.70;;;1.40;;
29246;SDS011;16272;48.188;9.964;2024-02-21T11:24:26;5.35;;;1.30;;
29246;SDS011;16272;48.188;9.964;2024-02-21T11:26:55;4.87;;;1.40;;
29246;SDS011;16272;48.188;9.964;2024-02-21T11:29:44;4.90;;;1.13;;
29246;SDS011;16272;48.188;9.964;2024-02-21T11:32:10;4.70;;;1.10;;
29246;SDS011;16272;48.188;9.964;2024-02-21T11:34:40;5.15;;;1.20;;
29246;SDS011;16272;48.188;9.964;2024-02-21T11:37:13;4.80;;;1.25;;
29246;SDS011;16272;48.188;9.964;2024-02-21T11:39:42;4.07;;;1.00;;
29246;SDS011;16272;48.188;9.964;2024-02-21T11:42:07;5.90;;;1.27;;
29246;SDS011;16272;48.188;9.964;2024-02-21T11:44:34;4.30;;;1.10;;
29246;SDS011;16272;48.188;9.964;2024-02-21T11:47:00;4.78;;;1.15;;
29246;SDS011;16272;48.188;9.964;2024-02-21T11:49:26;4.30;;;1.10;;
29246;SDS011;16272;48.188;9.964;2024-02-21T11:52:00;4.80;;;1.15;;
29246;SDS011;16272;48.188;9.964;2024-02-21T11:54:26;4.72;;;1.15;;
29246;SDS011;16272;48.188;9.964;2024-02-21T11:56:52;5.40;;;1.63;;
29246;SDS011;16272;48.188;9.964;2024-02-21T11:59:18;5.20;;;1.52;;
29246;SDS011;16272;48.188;9.964;2024-02-21T12:01:44;4.37;;;1.20;;
29246;SDS011;16272;48.188;9.964;2024-02-21T12:04:09;5.00;;;1.40;;
29246;SDS011;16272;48.188;9.964;2024-02-21T12:06:35;5.57;;;1.40;;
29246;SDS011;16272;48.188;9.964;2024-02-21T12:09:00;5.17;;;1.57;;
29246;SDS011;16272;48.188;9.964;2024-02-21T12:11:26;4.93;;;1.40;;
29246;SDS011;16272;48.188;9.964;2024-02-21T12:14:03;4.50;;;1.10;;
29246;SDS011;16272;48.188;9.964;2024-02-21T12:16:33;5.22;;;1.20;;
29246;SDS011;16272;48.188;9.964;2024-02-21T12:18:59;4.78;;;1.20;;
29246;SDS011;16272;48.188;9.964;2024-02-21T12:21:31;5.43;;;1.33;;
29246;SDS011;16272;48.188;9.964;2024-02-21T12:23:59;4.88;;;1.10;;
29246;SDS011;16272;48.188;9.964;2024-02-21T12:26:25;5.03;;;1.43;;
29246;SDS011;16272;48.188;9.964;2024-02-21T12:28:51;5.45;;;1.20;;
29246;SDS011;16272;48.188;9.964;2024-02-21T12:31:18;6.00;;;1.23;;
29246;SDS011;16272;48.188;9.964;2024-02-21T12:33:43;4.60;;;1.07;;
29246;SDS011;16272;48.188;9.964;2024-02-21T12:36:08;5.10;;;1.35;;
29246;SDS011;16272;48.188;9.964;2024-02-21T12:38:34;4.90;;;1.13;;
29246;SDS011;16272;48.188;9.964;2024-02-21T12:41:00;5.35;;;1.20;;
29246;SDS011;16272;48.188;9.964;2024-02-21T12:43:26;3.88;;;0.95;;
29246;SDS011;16272;48.188;9.964;2024-02-21T12:45:51;4.67;;;1.20;;
29246;SDS011;16272;48.188;9.964;2024-02-21T12:48:17;4.87;;;1.10;;
29246;SDS011;16272;48.188;9.964;2024-02-21T12:50:48;5.38;;;0.98;;
29246;SDS011;16272;48.188;9.964;2024-02-21T12:53:16;4.00;;;1.00;;
29246;SDS011;16272;48.188;9.964;2024-02-21T12:55:43;4.13;;;1.17;;
29246;SDS011;16272;48.188;9.964;2024-02-21T12:58:09;4.77;;;1.10;;
29246;SDS011;16272;48.188;9.964;2024-02-21T13:00:34;5.22;;;1.33;;
29246;SDS011;16272;48.188;9.964;2024-02-21T13:03:00;5.17;;;1.20;;
29246;SDS011;16272;48.188;9.964;2024-02-21T13:05:26;3.77;;;0.80;;
29246;SDS011;16272;48.188;9.964;2024-02-21T13:07:52;4.13;;;1.00;;
29246;SDS011;16272;48.188;9.964;2024-02-21T13:10:17;5.00;;;1.13;;
29246;SDS011;16272;48.188;9.964;2024-02-21T13:12:43;4.00;;;0.85;;
29246;SDS011;16272;48.188;9.964;2024-02-21T13:15:08;4.33;;;1.00;;
29246;SDS011;16272;48.188;9.964;2024-02-21T13:17:36;4.80;;;1.15;;
29246;SDS011;16272;48.188;9.964;2024-02-21T13:20:02;5.10;;;1.30;;
29246;SDS011;16272;48.188;9.964;2024-02-21T13:22:28;3.90;;;1.00;;
29246;SDS011;16272;48.188;9.964;2024-02-21T13:24:53;4.13;;;0.97;;
29246;SDS011;16272;48.188;9.964;2024-02-21T13:27:18;4.22;;;1.00;;
29246;SDS011;16272;48.188;9.964;2024-02-21T13:29:43;4.43;;;1.07;;
29246;SDS011;16272;48.188;9.964;2024-02-21T13:32:10;3.73;;;0.90;;
29246;SDS011;16272;48.188;9.964;2024-02-21T13:34:35;4.35;;;0.82;;
29246;SDS011;16272;48.188;9.964;2024-02-21T13:37:01;4.63;;;0.80;;
29246;SDS011;16272;48.188;9.964;2024-02-21T13:39:26;5.30;;;1.20;;
29246;SDS011;16272;48.188;9.964;2024-02-21T13:41:51;3.73;;;1.10;;
29246;SDS011;16272;48.188;9.964;2024-02-21T13:44:17;4.13;;;1.02;;
29246;SDS011;16272;48.188;9.964;2024-02-21T13:46:42;5.03;;;1.27;;
29246;SDS011;16272;48.188;9.964;2024-02-21T13:49:07;3.77;;;1.00;;
29246;SDS011;16272;48.188;9.964;2024-02-21T13:51:33;4.77;;;1.30;;
29246;SDS011;16272;48.188;9.964;2024-02-21T13:54:01;4.30;;;1.20;;
29246;SDS011;16272;48.188;9.964;2024-02-21T13:56:28;5.80;;;1.30;;
29246;SDS011;16272;48.188;9.964;2024-02-21T13:58:53;4.57;;;1.20;;
29246;SDS011;16272;48.188;9.964;2024-02-21T14:01:18;4.60;;;1.00;;
29246;SDS011;16272;48.188;9.964;2024-02-21T14:03:43;4.27;;;0.93;;
29246;SDS011;16272;48.188;9.964;2024-02-21T14:06:09;4.43;;;1.20;;
29246;SDS011;16272;48.188;9.964;2024-02-21T14:08:34;4.30;;;1.20;;
29246;SDS011;16272;48.188;9.964;2024-02-21T14:11:00;4.85;;;0.90;;
29246;SDS011;16272;48.188;9.964;2024-02-21T14:13:26;6.30;;;1.77;;
29246;SDS011;16272;48.188;9.964;2024-02-21T14:15:51;4.60;;;1.37;;
29246;SDS011;16272;48.188;9.964;2024-02-21T14:18:16;4.13;;;1.00;;
29246;SDS011;16272;48.188;9.964;2024-02-21T14:20:42;5.07;;;1.20;;
29246;SDS011;16272;48.188;9.964;2024-02-21T14:23:08;4.47;;;1.13;;
29246;SDS011;16272;48.188;9.964;2024-02-21T14:25:33;4.80;;;1.00;;
29246;SDS011;16272;48.188;9.964;2024-02-21T14:27:58;5.13;;;1.53;;
29246;SDS011;16272;48.188;9.964;2024-02-21T14:30:25;4.60;;;1.10;;
29246;SDS011;16272;48.188;9.964;2024-02-21T14:32:51;4.80;;;1.40;;
29246;SDS011;16272;48.188;9.964;2024-02-21T14:35:16;4.93;;;1.13;;
29246;SDS011;16272;48.188;9.964;2024-02-21T14:37:42;5.10;;;1.10;;
29246;SDS011;16272;48.188;9.964;2024-02-21T14:40:07;5.07;;;1.17;;
29246;SDS011;16272;48.188;9.964;2024-02-21T14:42:33;4.47;;;0.80;;
29246;SDS011;16272;48.188;9.964;2024-02-21T14:44:59;5.03;;;1.30;;
29246;SDS011;16272;48.188;9.964;2024-02-21T14:47:29;5.10;;;1.27;;
29246;SDS011;16272;48.188;9.964;2024-02-21T14:49:58;5.68;;;1.25;;
29246;SDS011;16272;48.188;9.964;2024-02-21T14:52:23;4.63;;;1.17;;
29246;SDS011;16272;48.188;9.964;2024-02-21T14:54:50;4.90;;;1.27;;
29246;SDS011;16272;48.188;9.964;2024-02-21T14:57:17;4.80;;;1.20;;
29246;SDS011;16272;48.188;9.964;2024-02-21T14:59:42;5.07;;;1.20;;
29246;SDS011;16272;48.188;9.964;2024-02-21T15:02:08;6.00;;;1.17;;